Time;durP1;ratioP1;P1;durP2;ratioP2;P2;SDS_P1;SDS_P2;PMS_P1;PMS_P2;Temp;Humidity;BMP_temperature;BMP_pressure;BME280_temperature;BME280_humidity;BME280_pressure;Samples;Min_cycle;Max_cycle;Signal;HPM_P1;HPM_P2
2022/09/13 00:02:17;;;;;;;;;;;;;;;;;;5175991;27;19958;-48
2022/09/13 00:04:47;;;;;;;;;;;;;;;;;;5176144;27;19927;-50
2022/09/13 00:07:14;;;;;;;;;;;;;;;;;;5175985;27;20397;-50
2022/09/13 00:09:41;;;;;;;;;;;;;;;;;;5175863;27;20324;-47
2022/09/13 00:12:08;;;;;;;;;;;;;;;;;;5176341;27;20393;-47
2022/09/13 00:14:36;;;;;;;;;;;;;;;;;;5176025;27;19929;-51
2022/09/13 00:17:03;;;;;;;;;;;;;;;;;;5175810;27;19971;-47
2022/09/13 00:19:30;;;;;;;;;;;;;;;;;;5175937;27;20288;-47
2022/09/13 00:21:57;;;;;;;;;;;;;;;;;;5175437;27;19927;-50
2022/09/13 00:24:24;;;;;;;;;;;;;;;;;;5175954;27;19923;-48
2022/09/13 00:26:52;;;;;;;;;;;;;;;;;;5175381;27;20381;-49
2022/09/13 00:29:19;;;;;;;;;;;;;;;;;;5175506;27;19923;-50
2022/09/13 00:31:46;;;;;;;;;;;;;;;;;;5174800;27;19922;-49
2022/09/13 00:34:13;;;;;;;;;;;;;;;;;;5175249;27;20382;-52
2022/09/13 00:36:40;;;;;;;;;;;;;;;;;;5175618;27;19949;-43
2022/09/13 00:39:08;;;;;;;;;;;;;;;;;;5175509;27;19945;-53
2022/09/13 00:41:37;;;;;;;;;;;;;;;;;;5175731;27;19962;-50
2022/09/13 00:44:05;;;;;;;;;;;;;;;;;;5175121;27;19975;-51
2022/09/13 00:46:41;;;;;;;;;;;;;;;;;;5175558;27;19979;-53
2022/09/13 00:49:13;;;;;;;;;;;;;;;;;;5175234;27;19922;-45
2022/09/13 00:51:42;;;;;;;;;;;;;;;;;;5175233;27;19937;-49
2022/09/13 00:54:09;;;;;;;;;;;;;;;;;;5175448;27;19922;-53
2022/09/13 00:56:39;;;;;;;;;;;;;;;;;;5175540;27;19923;-53
2022/09/13 00:59:10;;;;;;;;;;;;;;;;;;5175374;27;19926;-49
2022/09/13 01:01:47;;;;;;;;;;;;;;;;;;5175339;27;20021;-52
2022/09/13 01:04:16;;;;;;;;;;;;;;;;;;5175125;27;19945;-52
2022/09/13 01:06:43;;;;;;;;;;;;;;;;;;5175116;27;19922;-52
2022/09/13 01:09:11;;;;;;;;;;;;;;;;;;5174822;27;20025;-44
2022/09/13 01:11:46;;;;;;;;;;;;;;;;;;5156973;27;19929;-51
2022/09/13 01:14:14;;;;;;;;;;;;;;;;;;5174937;27;20001;-51
2022/09/13 01:16:41;;;;;;;;;;;;;;;;;;5175033;27;20315;-44
2022/09/13 01:19:12;;;;;;;;;;;;;;;;;;5174835;27;19929;-52
2022/09/13 01:21:58;;;;;;;;;;;;;;;;;;5175073;27;20668;-52
2022/09/13 01:24:43;;;;;;;;;;;;;;;;;;5174779;27;19929;-50
2022/09/13 01:27:19;;;;;;;;;;;;;;;;;;5175040;27;19922;-52
2022/09/13 01:30:05;;;;;;;;;;;;;;;;;;5174658;27;20021;-52
2022/09/13 01:32:37;;;;;;;;;;;;;;;;;;5174752;27;20304;-53
2022/09/13 01:35:08;;;;;;;;;;;;;;;;;;5174968;27;20026;-50
2022/09/13 01:37:46;;;;;;;;;;;;;;;;;;5174582;27;19958;-50
2022/09/13 01:40:27;;;;;;;;;;;;;;;;;;5174687;27;19969;-48
2022/09/13 01:43:18;;;;;;;;;;;;;;;;;;5174786;27;19922;-52
2022/09/13 01:45:51;;;;;;;;;;;;;;;;;;5178786;27;19923;-52
2022/09/13 01:48:37;;;;;;;;;;;;;;;;;;5179033;27;20353;-50
2022/09/13 01:51:23;;;;;;;;;;;;;;;;;;5178660;27;19923;-53
2022/09/13 01:53:57;;;;;;;;;;;;;;;;;;5178761;27;19965;-50
2022/09/13 01:56:32;;;;;;;;;;;;;;;;;;5178885;27;19969;-51
2022/09/13 01:59:07;;;;;;;;;;;;;;;;;;5178353;27;19923;-48
2022/09/13 02:01:38;;;;;;;;;;;;;;;;;;5178671;27;20266;-52
2022/09/13 02:04:12;;;;;;;;;;;;;;;;;;5168761;27;19923;-52
2022/09/13 02:06:41;;;;;;;;;;;;;;;;;;5178816;27;19958;-49
2022/09/13 02:09:10;;;;;;;;;;;;;;;;;;5178260;27;20377;-50
2022/09/13 02:11:39;;;;;;;;;;;;;;;;;;5178513;27;19962;-49
2022/09/13 02:14:07;;;;;;;;;;;;;;;;;;5178421;27;20374;-52
2022/09/13 02:16:42;;;;;;;;;;;;;;;;;;5178300;27;19962;-52
2022/09/13 02:19:13;;;;;;;;;;;;;;;;;;5178353;27;20327;-49
2022/09/13 02:21:43;;;;;;;;;;;;;;;;;;5178435;27;19929;-50
2022/09/13 02:24:22;;;;;;;;;;;;;;;;;;5178276;27;20375;-50
2022/09/13 02:26:51;;;;;;;;;;;;;;;;;;5178223;27;19930;-53
2022/09/13 02:29:20;;;;;;;;;;;;;;;;;;5178059;27;19923;-51
2022/09/13 02:32:07;;;;;;;;;;;;;;;;;;5178274;27;20441;-48
2022/09/13 02:34:40;;;;;;;;;;;;;;;;;;5177924;27;20421;-47
2022/09/13 02:37:09;;;;;;;;;;;;;;;;;;5178456;27;20285;-48
2022/09/13 02:39:39;;;;;;;;;;;;;;;;;;5177655;27;19922;-51
2022/09/13 02:42:14;;;;;;;;;;;;;;;;;;5178180;27;19969;-53
2022/09/13 02:44:42;;;;;;;;;;;;;;;;;;5177438;27;19927;-49
2022/09/13 02:47:27;;;;;;;;;;;;;;;;;;5177943;27;19966;-51
2022/09/13 02:50:10;;;;;;;;;;;;;;;;;;5177477;27;19926;-50
2022/09/13 02:52:55;;;;;;;;;;;;;;;;;;5178204;27;19962;-49
2022/09/13 02:55:24;;;;;;;;;;;;;;;;;;5176699;27;19965;-54
2022/09/13 02:58:10;;;;;;;;;;;;;;;;;;5177617;27;19930;-48
2022/09/13 03:00:38;;;;;;;;;;;;;;;;;;5177699;27;19923;-51
2022/09/13 03:03:07;;;;;;;;;;;;;;;;;;5177270;27;20304;-52
2022/09/13 03:05:34;;;;;;;;;;;;;;;;;;5177273;27;20531;-54
2022/09/13 03:08:02;;;;;;;;;;;;;;;;;;5177073;27;19923;-49
2022/09/13 03:10:35;;;;;;;;;;;;;;;;;;5176909;27;20013;-49
2022/09/13 03:13:14;;;;;;;;;;;;;;;;;;5177268;27;19934;-52
2022/09/13 03:15:46;;;;;;;;;;;;;;;;;;5141512;27;20022;-48
2022/09/13 03:18:18;;;;;;;;;;;;;;;;;;5158492;27;19930;-50
2022/09/13 03:20:57;;;;;;;;;;;;;;;;;;5177068;27;19923;-51
2022/09/13 03:23:31;;;;;;;;;;;;;;;;;;5177100;27;19930;-48
2022/09/13 03:26:06;;;;;;;;;;;;;;;;;;5168254;27;19979;-52
2022/09/13 03:28:37;;;;;;;;;;;;;;;;;;5155724;27;19923;-51
2022/09/13 03:31:11;;;;;;;;;;;;;;;;;;5155926;27;19923;-51
2022/09/13 03:33:43;;;;;;;;;;;;;;;;;;5156234;27;19923;-44
2022/09/13 03:36:13;;;;;;;;;;;;;;;;;;5156256;27;19971;-46
2022/09/13 03:38:46;;;;;;;;;;;;;;;;;;5155927;27;19958;-52
2022/09/13 03:41:20;;;;;;;;;;;;;;;;;;5155694;27;19927;-50
2022/09/13 03:43:53;;;;;;;;;;;;;;;;;;5155598;27;20355;-52
2022/09/13 03:46:25;;;;;;;;;;;;;;;;;;5155421;27;20059;-51
2022/09/13 03:48:52;;;;;;;;;;;;;;;;;;5155549;27;19968;-48
2022/09/13 03:51:20;;;;;;;;;;;;;;;;;;5155448;27;19923;-46
2022/09/13 03:53:51;;;;;;;;;;;;;;;;;;5155441;27;20034;-44
2022/09/13 03:56:21;;;;;;;;;;;;;;;;;;5155472;27;19923;-51
2022/09/13 03:58:49;;;;;;;;;;;;;;;;;;5155460;27;19923;-53
2022/09/13 04:01:20;;;;;;;;;;;;;;;;;;5155321;27;19923;-49
2022/09/13 04:03:48;;;;;;;;;;;;;;;;;;5163500;27;19975;-45
2022/09/13 04:06:19;;;;;;;;;;;;;;;;;;5175929;27;19930;-48
2022/09/13 04:08:46;;;;;;;;;;;;;;;;;;5175673;27;20020;-48
2022/09/13 04:11:14;;;;;;;;;;;;;;;;;;5175693;27;19923;-45
2022/09/13 04:13:41;;;;;;;;;;;;;;;;;;5176059;27;20373;-50
2022/09/13 04:16:09;;;;;;;;;;;;;;;;;;5176329;27;19954;-49
2022/09/13 04:18:36;;;;;;;;;;;;;;;;;;5175910;27;20310;-52
2022/09/13 04:21:04;;;;;;;;;;;;;;;;;;5175440;27;19970;-52
2022/09/13 04:23:31;;;;;;;;;;;;;;;;;;5175714;27;19930;-47
2022/09/13 04:26:02;;;;;;;;;;;;;;;;;;5175509;27;19927;-52
2022/09/13 04:28:30;;;;;;;;;;;;;;;;;;5175487;27;19966;-45
2022/09/13 04:30:57;;;;;;;;;;;;;;;;;;5175277;27;19929;-52
2022/09/13 04:33:24;;;;;;;;;;;;;;;;;;5175651;27;19922;-51
2022/09/13 04:35:58;;;;;;;;;;;;;;;;;;5117809;27;19953;-48
2022/09/13 04:38:26;;;;;;;;;;;;;;;;;;5091567;28;19950;-45
2022/09/13 04:40:53;;;;;;;;;;;;;;;;;;5092912;28;20387;-51
2022/09/13 04:43:21;;;;;;;;;;;;;;;;;;5093039;28;19959;-45
2022/09/13 04:45:48;;;;;;;;;;;;;;;;;;5092590;28;19990;-51
2022/09/13 04:48:16;;;;;;;;;;;;;;;;;;5092839;28;19970;-43
2022/09/13 04:50:43;;;;;;;;;;;;;;;;;;5092498;28;19951;-47
2022/09/13 04:53:11;;;;;;;;;;;;;;;;;;5092941;28;19931;-42
2022/09/13 04:55:38;;;;;;;;;;;;;;;;;;5092678;28;19924;-45
2022/09/13 04:58:06;;;;;;;;;;;;;;;;;;5092471;28;20027;-43
2022/09/13 05:00:34;;;;;;;;;;;;;;;;;;5092653;28;20418;-46
2022/09/13 05:03:01;;;;;;;;;;;;;;;;;;5092597;28;19924;-49
2022/09/13 05:05:31;;;;;;;;;;;;;;;;;;5092313;28;19931;-50
2022/09/13 05:08:00;;;;;;;;;;;;;;;;;;5092323;28;19985;-44
2022/09/13 05:10:28;;;;;;;;;;;;;;;;;;5092468;28;19924;-50
2022/09/13 05:12:55;;;;;;;;;;;;;;;;;;5092282;28;19924;-43
2022/09/13 05:15:22;;;;;;;;;;;;;;;;;;5092439;28;20332;-46
2022/09/13 05:17:49;;;;;;;;;;;;;;;;;;5092286;28;19931;-47
2022/09/13 05:20:17;;;;;;;;;;;;;;;;;;5091986;28;20364;-47
2022/09/13 05:22:47;;;;;;;;;;;;;;;;;;5092438;28;20269;-44
2022/09/13 05:25:15;;;;;;;;;;;;;;;;;;5092340;28;19956;-51
2022/09/13 05:27:43;;;;;;;;;;;;;;;;;;5092329;28;19924;-43
2022/09/13 05:30:11;;;;;;;;;;;;;;;;;;5092137;28;19993;-45
2022/09/13 05:32:38;;;;;;;;;;;;;;;;;;5092105;28;19927;-45
2022/09/13 05:35:06;;;;;;;;;;;;;;;;;;5092445;28;19931;-49
2022/09/13 05:37:33;;;;;;;;;;;;;;;;;;5092196;28;19928;-52
2022/09/13 05:40:01;;;;;;;;;;;;;;;;;;5091959;28;19928;-51
2022/09/13 05:42:43;;;;;;;;;;;;;;;;;;5092470;28;20386;-43
2022/09/13 05:45:11;;;;;;;;;;;;;;;;;;5092231;28;19924;-48
2022/09/13 05:47:38;;;;;;;;;;;;;;;;;;5092074;28;19924;-44
2022/09/13 05:50:06;;;;;;;;;;;;;;;;;;5091987;28;19931;-49
2022/09/13 05:52:41;;;;;;;;;;;;;;;;;;5106406;28;19927;-44
2022/09/13 05:55:09;;;;;;;;;;;;;;;;;;5090696;28;20029;-50
2022/09/13 05:57:36;;;;;;;;;;;;;;;;;;5091972;28;20019;-49
2022/09/13 06:00:03;;;;;;;;;;;;;;;;;;5091767;28;19935;-44
2022/09/13 06:02:37;;;;;;;;;;;;;;;;;;5092102;28;20397;-47
2022/09/13 06:05:06;;;;;;;;;;;;;;;;;;5091758;28;19928;-44
2022/09/13 06:07:34;;;;;;;;;;;;;;;;;;5091693;28;20387;-51
2022/09/13 06:10:01;;;;;;;;;;;;;;;;;;5092010;28;19928;-50
2022/09/13 06:12:29;;;;;;;;;;;;;;;;;;5091849;28;19934;-48
2022/09/13 06:14:56;;;;;;;;;;;;;;;;;;5090286;28;20409;-48
2022/09/13 06:17:23;;;;;;;;;;;;;;;;;;5091831;28;20406;-46
2022/09/13 06:19:50;;;;;;;;;;;;;;;;;;5091712;28;19974;-44
2022/09/13 06:22:17;;;;;;;;;;;;;;;;;;5091953;28;19931;-51
2022/09/13 06:24:45;;;;;;;;;;;;;;;;;;5091798;28;20379;-49
2022/09/13 06:27:12;;;;;;;;;;;;;;;;;;5091409;28;20303;-48
2022/09/13 06:29:39;;;;;;;;;;;;;;;;;;5091661;28;20388;-48
2022/09/13 06:32:06;;;;;;;;;;;;;;;;;;5094532;28;19927;-48
2022/09/13 06:34:36;;;;;;;;;;;;;;;;;;5094781;28;19934;-50
2022/09/13 06:37:03;;;;;;;;;;;;;;;;;;5094787;28;20011;-49
2022/09/13 06:39:31;;;;;;;;;;;;;;;;;;5095440;28;20015;-50
2022/09/13 06:41:58;;;;;;;;;;;;;;;;;;5094745;28;19963;-53
2022/09/13 06:44:37;;;;;;;;;;;;;;;;;;5093841;28;19928;-51
2022/09/13 06:47:05;;;;;;;;;;;;;;;;;;5095104;28;19923;-45
2022/09/13 06:49:32;;;;;;;;;;;;;;;;;;5094938;28;19934;-45
2022/09/13 06:51:59;;;;;;;;;;;;;;;;;;5095099;28;19928;-49
2022/09/13 06:54:27;;;;;;;;;;;;;;;;;;5094210;28;19924;-46
2022/09/13 06:56:54;;;;;;;;;;;;;;;;;;5093821;28;19939;-47
2022/09/13 06:59:21;;;;;;;;;;;;;;;;;;5095012;28;19935;-52
2022/09/13 07:01:48;;;;;;;;;;;;;;;;;;5094754;28;20264;-46
2022/09/13 07:04:18;;;;;;;;;;;;;;;;;;5094486;28;20201;-48
2022/09/13 07:06:46;;;;;;;;;;;;;;;;;;5094749;28;20299;-49
2022/09/13 07:09:18;;;;;;;;;;;;;;;;;;5094624;28;20302;-53
2022/09/13 07:11:46;;;;;;;;;;;;;;;;;;5094441;28;19935;-51
2022/09/13 07:14:14;;;;;;;;;;;;;;;;;;5094454;28;19938;-53
2022/09/13 07:16:42;;;;;;;;;;;;;;;;;;5094648;28;20299;-51
2022/09/13 07:19:16;;;;;;;;;;;;;;;;;;5094729;28;19932;-49
2022/09/13 07:21:43;;;;;;;;;;;;;;;;;;5094193;28;19931;-47
2022/09/13 07:24:10;;;;;;;;;;;;;;;;;;5094248;28;19924;-52
2022/09/13 07:26:38;;;;;;;;;;;;;;;;;;5094312;28;19994;-50
2022/09/13 07:29:06;;;;;;;;;;;;;;;;;;5094265;28;19924;-49
2022/09/13 07:31:38;;;;;;;;;;;;;;;;;;5094178;28;19931;-47
2022/09/13 07:34:07;;;;;;;;;;;;;;;;;;5093927;28;19924;-45
2022/09/13 07:36:35;;;;;;;;;;;;;;;;;;5093912;28;19970;-50
2022/09/13 07:39:03;;;;;;;;;;;;;;;;;;5094145;28;19924;-52
2022/09/13 07:41:31;;;;;;;;;;;;;;;;;;5093050;28;19924;-48
2022/09/13 07:44:00;;;;;;;;;;;;;;;;;;5094021;28;20015;-50
2022/09/13 07:46:32;;;;;;;;;;;;;;;;;;5093964;28;20295;-50
2022/09/13 07:49:00;;;;;;;;;;;;;;;;;;5093921;28;20296;-50
2022/09/13 07:51:29;;;;;;;;;;;;;;;;;;5093851;28;20023;-47
2022/09/13 07:53:57;;;;;;;;;;;;;;;;;;5093838;28;19954;-50
2022/09/13 07:56:26;;;;;;;;;;;;;;;;;;5094073;28;19957;-48
2022/09/13 07:58:54;;;;;;;;;;;;;;;;;;5093879;28;19935;-49
2022/09/13 08:01:22;;;;;;;;;;;;;;;;;;5093920;28;19934;-52
2022/09/13 08:04:03;;;;;;;;;;;;;;;;;;5093493;28;19993;-45
2022/09/13 08:06:32;;;;;;;;;;;;;;;;;;5093797;28;20409;-51
2022/09/13 08:08:59;;;;;;;;;;;;;;;;;;5093265;28;19930;-50
2022/09/13 08:11:31;;;;;;;;;;;;;;;;;;5093397;28;20333;-44
2022/09/13 08:14:02;;;;;;;;;;;;;;;;;;5093417;28;19928;-47
2022/09/13 08:16:29;;;;;;;;;;;;;;;;;;5093521;28;20348;-45
2022/09/13 08:18:58;;;;;;;;;;;;;;;;;;5093662;28;20007;-43
2022/09/13 08:21:25;;;;;;;;;;;;;;;;;;5093274;28;19971;-49
2022/09/13 08:23:58;;;;;;;;;;;;;;;;;;5093427;28;19934;-45
2022/09/13 08:26:29;;;;;;;;;;;;;;;;;;5093403;28;19924;-49
2022/09/13 08:28:58;;;;;;;;;;;;;;;;;;5093259;28;20390;-51
2022/09/13 08:31:26;;;;;;;;;;;;;;;;;;5093481;28;20280;-50
2022/09/13 08:33:53;;;;;;;;;;;;;;;;;;5093397;28;19924;-47
2022/09/13 08:36:23;;;;;;;;;;;;;;;;;;5092759;28;19946;-49
2022/09/13 08:38:51;;;;;;;;;;;;;;;;;;5093037;28;19924;-48
2022/09/13 08:41:38;;;;;;;;;;;;;;;;;;5092887;28;20343;-48
2022/09/13 08:44:12;;;;;;;;;;;;;;;;;;5092971;28;19924;-48
2022/09/13 08:46:41;;;;;;;;;;;;;;;;;;5092385;28;20372;-49
2022/09/13 08:49:17;;;;;;;;;;;;;;;;;;5091772;28;19924;-45
2022/09/13 08:51:48;;;;;;;;;;;;;;;;;;5092543;28;19938;-47
2022/09/13 08:54:16;;;;;;;;;;;;;;;;;;5092357;28;20357;-49
2022/09/13 08:56:45;;;;;;;;;;;;;;;;;;5092805;28;19931;-44
2022/09/13 08:59:31;;;;;;;;;;;;;;;;;;5092692;28;19924;-49
2022/09/13 09:02:01;;;;;;;;;;;;;;;;;;5092390;28;19924;-47
2022/09/13 09:04:33;;;;;;;;;;;;;;;;;;5092805;28;19924;-44
2022/09/13 09:07:04;;;;;;;;;;;;;;;;;;5092232;28;19931;-45
2022/09/13 09:09:34;;;;;;;;;;;;;;;;;;5092567;28;19925;-49
2022/09/13 09:12:11;;;;;;;;;;;;;;;;;;5091993;28;19928;-48
2022/09/13 09:14:43;;;;;;;;;;;;;;;;;;5092147;28;19954;-47
2022/09/13 09:17:16;;;;;;;;;;;;;;;;;;5092190;28;19924;-48
2022/09/13 09:19:46;;;;;;;;;;;;;;;;;;5092607;28;20391;-48
2022/09/13 09:22:18;;;;;;;;;;;;;;;;;;5092214;28;19963;-51
2022/09/13 09:24:48;;;;;;;;;;;;;;;;;;5092298;28;20383;-49
2022/09/13 09:27:16;;;;;;;;;;;;;;;;;;5092208;28;19924;-49
2022/09/13 09:29:45;;;;;;;;;;;;;;;;;;5092216;28;19931;-49
2022/09/13 09:32:22;;;;;;;;;;;;;;;;;;5092193;28;20399;-50
2022/09/13 09:34:52;;;;;;;;;;;;;;;;;;5092361;28;19925;-48
2022/09/13 09:37:23;;;;;;;;;;;;;;;;;;5091901;28;19928;-47
2022/09/13 09:39:52;;;;;;;;;;;;;;;;;;5082564;28;20151;-52
2022/09/13 09:42:24;;;;;;;;;;;;;;;;;;5071906;28;19925;-52
2022/09/13 09:44:52;;;;;;;;;;;;;;;;;;5072031;28;19974;-49
2022/09/13 09:47:33;;;;;;;;;;;;;;;;;;5079059;28;19924;-50
2022/09/13 09:50:09;;;;;;;;;;;;;;;;;;5092067;28;19928;-49
2022/09/13 09:53:08;;;;;;;;;;;;;;;;;;5091702;28;20245;-54
2022/09/13 09:55:44;;;;;;;;;;;;;;;;;;5080013;28;19924;-50
2022/09/13 09:58:15;;;;;;;;;;;;;;;;;;5092073;28;19924;-51
2022/09/13 10:00:50;;;;;;;;;;;;;;;;;;5092021;28;19931;-49
2022/09/13 10:03:18;;;;;;;;;;;;;;;;;;5092127;28;19957;-53
2022/09/13 10:05:46;;;;;;;;;;;;;;;;;;5094279;28;19930;-50
2022/09/13 10:08:30;;;;;;;;;;;;;;;;;;5095829;28;19924;-51
2022/09/13 10:11:01;;;;;;;;;;;;;;;;;;5095804;28;19928;-52
2022/09/13 10:13:29;;;;;;;;;;;;;;;;;;5096157;28;20265;-52
2022/09/13 10:16:05;;;;;;;;;;;;;;;;;;5094392;28;19928;-50
2022/09/13 10:18:34;;;;;;;;;;;;;;;;;;5094651;28;19928;-45
2022/09/13 10:21:22;;;;;;;;;;;;;;;;;;5094693;28;19924;-49
2022/09/13 10:23:49;;;;;;;;;;;;;;;;;;5094593;28;19931;-50
2022/09/13 10:26:19;;;;;;;;;;;;;;;;;;5094749;28;19967;-50
2022/09/13 10:28:54;;;;;;;;;;;;;;;;;;5095203;28;20023;-51
2022/09/13 10:31:27;;;;;;;;;;;;;;;;;;5094348;28;19924;-49
2022/09/13 10:33:57;;;;;;;;;;;;;;;;;;5095298;28;19935;-53
2022/09/13 10:36:30;;;;;;;;;;;;;;;;;;5095251;28;19939;-52
2022/09/13 10:39:20;;;;;;;;;;;;;;;;;;5095066;28;20384;-49
2022/09/13 10:41:59;;;;;;;;;;;;;;;;;;5094829;28;19928;-56
2022/09/13 10:44:28;;;;;;;;;;;;;;;;;;5095290;28;19931;-52
2022/09/13 10:46:58;;;;;;;;;;;;;;;;;;5095208;28;20307;-50
2022/09/13 10:49:35;;;;;;;;;;;;;;;;;;5094664;28;19932;-52
2022/09/13 10:52:23;;;;;;;;;;;;;;;;;;5094937;28;19932;-51
2022/09/13 10:54:50;;;;;;;;;;;;;;;;;;5083844;28;19960;-53
2022/09/13 10:57:34;;;;;;;;;;;;;;;;;;5074690;28;19931;-50
2022/09/13 11:00:09;;;;;;;;;;;;;;;;;;5074643;28;20481;-44
2022/09/13 11:02:56;;;;;;;;;;;;;;;;;;5074537;28;19970;-44
2022/09/13 11:05:28;;;;;;;;;;;;;;;;;;5074708;28;20011;-47
2022/09/13 11:08:13;;;;;;;;;;;;;;;;;;5074034;28;19974;-51
2022/09/13 11:10:54;;;;;;;;;;;;;;;;;;5074749;28;19928;-52
2022/09/13 11:13:21;;;;;;;;;;;;;;;;;;5074073;28;19925;-47
2022/09/13 11:15:59;;;;;;;;;;;;;;;;;;5074205;28;20367;-51
2022/09/13 11:18:35;;;;;;;;;;;;;;;;;;5074362;28;19924;-50
2022/09/13 11:21:09;;;;;;;;;;;;;;;;;;5074422;28;19924;-50
2022/09/13 11:23:37;;;;;;;;;;;;;;;;;;5074043;28;19924;-45
2022/09/13 11:26:27;;;;;;;;;;;;;;;;;;5073995;28;20311;-45
2022/09/13 11:29:00;;;;;;;;;;;;;;;;;;5045927;28;20457;-45
2022/09/13 11:31:41;;;;;;;;;;;;;;;;;;5073960;28;19966;-50
2022/09/13 11:34:23;;;;;;;;;;;;;;;;;;5073990;28;19925;-52
2022/09/13 11:37:15;;;;;;;;;;;;;;;;;;5074130;28;19924;-51
2022/09/13 11:40:01;;;;;;;;;;;;;;;;;;5073789;28;20337;-46
2022/09/13 11:42:41;;;;;;;;;;;;;;;;;;5073637;28;19925;-50
2022/09/13 11:45:18;;;;;;;;;;;;;;;;;;5074017;28;19924;-47
2022/09/13 11:47:56;;;;;;;;;;;;;;;;;;5072557;28;20383;-49
2022/09/13 11:50:43;;;;;;;;;;;;;;;;;;5073631;28;19974;-46
2022/09/13 11:53:30;;;;;;;;;;;;;;;;;;5073853;28;19931;-47
2022/09/13 11:56:00;;;;;;;;;;;;;;;;;;5063408;28;19929;-45
2022/09/13 11:58:31;;;;;;;;;;;;;;;;;;5073564;28;20299;-52
2022/09/13 12:01:07;;;;;;;;;;;;;;;;;;5073069;28;19925;-49
2022/09/13 12:03:53;;;;;;;;;;;;;;;;;;5079786;28;19931;-49
2022/09/13 12:06:29;;;;;;;;;;;;;;;;;;5093755;28;20397;-50
2022/09/13 12:09:25;;;;;;;;;;;;;;;;;;5093404;28;20031;-44
2022/09/13 12:12:05;;;;;;;;;;;;;;;;;;5087691;28;19947;-50
2022/09/13 12:14:40;;;;;;;;;;;;;;;;;;5093619;28;19981;-53
2022/09/13 12:17:14;;;;;;;;;;;;;;;;;;5093967;28;20374;-46
2022/09/13 12:19:46;;;;;;;;;;;;;;;;;;5093335;28;19970;-44
2022/09/13 12:22:14;;;;;;;;;;;;;;;;;;5092334;28;19947;-45
2022/09/13 12:24:50;;;;;;;;;;;;;;;;;;5093199;28;19931;-44
2022/09/13 12:27:38;;;;;;;;;;;;;;;;;;5093187;28;19979;-50
2022/09/13 12:30:13;;;;;;;;;;;;;;;;;;5092489;28;19924;-50
2022/09/13 12:32:43;;;;;;;;;;;;;;;;;;5092768;28;19928;-44
2022/09/13 12:35:20;;;;;;;;;;;;;;;;;;5093002;28;19924;-45
2022/09/13 12:37:50;;;;;;;;;;;;;;;;;;5093173;28;20014;-43
2022/09/13 12:40:30;;;;;;;;;;;;;;;;;;5092576;28;19974;-44
2022/09/13 12:43:03;;;;;;;;;;;;;;;;;;5092743;28;20576;-53
2022/09/13 12:45:33;;;;;;;;;;;;;;;;;;5093071;28;19936;-46
2022/09/13 12:48:13;;;;;;;;;;;;;;;;;;5092637;28;20349;-53
2022/09/13 12:50:55;;;;;;;;;;;;;;;;;;5093299;28;20362;-52
2022/09/13 12:53:23;;;;;;;;;;;;;;;;;;5092502;28;20011;-49
2022/09/13 12:56:12;;;;;;;;;;;;;;;;;;5092855;28;19924;-51
2022/09/13 12:59:03;;;;;;;;;;;;;;;;;;5092945;28;20265;-52
2022/09/13 13:01:31;;;;;;;;;;;;;;;;;;5081768;28;19925;-48
2022/09/13 13:04:07;;;;;;;;;;;;;;;;;;5092364;28;19928;-50
2022/09/13 13:06:38;;;;;;;;;;;;;;;;;;5092755;28;19924;-51
2022/09/13 13:09:24;;;;;;;;;;;;;;;;;;5092606;28;19971;-49
2022/09/13 13:11:57;;;;;;;;;;;;;;;;;;5092277;28;19931;-47
2022/09/13 13:14:39;;;;;;;;;;;;;;;;;;5092620;28;20344;-51
2022/09/13 13:17:26;;;;;;;;;;;;;;;;;;5092890;28;20268;-46
2022/09/13 13:19:55;;;;;;;;;;;;;;;;;;5092480;28;20342;-48
2022/09/13 13:22:41;;;;;;;;;;;;;;;;;;5092198;28;19975;-49
2022/09/13 13:25:26;;;;;;;;;;;;;;;;;;5092628;28;19924;-50
2022/09/13 13:27:54;;;;;;;;;;;;;;;;;;5092509;28;20392;-51
2022/09/13 13:30:41;;;;;;;;;;;;;;;;;;5092256;28;19924;-47
2022/09/13 13:33:16;;;;;;;;;;;;;;;;;;5092379;28;20039;-50
2022/09/13 13:35:44;;;;;;;;;;;;;;;;;;5092451;28;20407;-53
2022/09/13 13:38:29;;;;;;;;;;;;;;;;;;5092534;28;19931;-48
2022/09/13 13:41:15;;;;;;;;;;;;;;;;;;5095488;28;19971;-52
2022/09/13 13:43:42;;;;;;;;;;;;;;;;;;5096126;28;19932;-50
2022/09/13 13:46:10;;;;;;;;;;;;;;;;;;5096527;28;19924;-53
2022/09/13 13:48:39;;;;;;;;;;;;;;;;;;5096111;28;19977;-52
2022/09/13 13:51:10;;;;;;;;;;;;;;;;;;5096568;28;19970;-52
2022/09/13 13:53:38;;;;;;;;;;;;;;;;;;5096204;28;19928;-52
2022/09/13 13:56:07;;;;;;;;;;;;;;;;;;5096471;28;20006;-51
2022/09/13 13:58:44;;;;;;;;;;;;;;;;;;5095917;28;20341;-52
2022/09/13 14:01:16;;;;;;;;;;;;;;;;;;5096081;28;19924;-46
2022/09/13 14:03:46;;;;;;;;;;;;;;;;;;5095434;28;19987;-47
2022/09/13 14:06:32;;;;;;;;;;;;;;;;;;5095927;28;19974;-51
2022/09/13 14:09:18;;;;;;;;;;;;;;;;;;5095929;28;19976;-52
2022/09/13 14:11:49;;;;;;;;;;;;;;;;;;5095819;28;20310;-54
2022/09/13 14:14:19;;;;;;;;;;;;;;;;;;5095746;28;19952;-51
2022/09/13 14:17:06;;;;;;;;;;;;;;;;;;5095488;28;19967;-52
2022/09/13 14:19:41;;;;;;;;;;;;;;;;;;5095894;28;19963;-45
2022/09/13 14:22:19;;;;;;;;;;;;;;;;;;5095708;28;19978;-50
2022/09/13 14:24:51;;;;;;;;;;;;;;;;;;5094046;28;20391;-50
2022/09/13 14:27:26;;;;;;;;;;;;;;;;;;5095645;28;19963;-50
2022/09/13 14:29:55;;;;;;;;;;;;;;;;;;5095301;28;19977;-50
2022/09/13 14:32:24;;;;;;;;;;;;;;;;;;5095501;28;19928;-49
2022/09/13 14:35:00;;;;;;;;;;;;;;;;;;5095310;28;20006;-48
2022/09/13 14:37:32;;;;;;;;;;;;;;;;;;5095561;28;19977;-50
2022/09/13 14:40:09;;;;;;;;;;;;;;;;;;5095376;28;19924;-49
2022/09/13 14:42:38;;;;;;;;;;;;;;;;;;5095390;28;19924;-50
2022/09/13 14:45:11;;;;;;;;;;;;;;;;;;5095088;28;19935;-51
2022/09/13 14:47:52;;;;;;;;;;;;;;;;;;5094983;28;19930;-47
2022/09/13 14:50:24;;;;;;;;;;;;;;;;;;5094746;28;19975;-48
2022/09/13 14:52:57;;;;;;;;;;;;;;;;;;5094308;28;20303;-51
2022/09/13 14:55:50;;;;;;;;;;;;;;;;;;5095171;28;20394;-53
2022/09/13 14:58:21;;;;;;;;;;;;;;;;;;5086434;28;20006;-49
2022/09/13 15:00:56;;;;;;;;;;;;;;;;;;5093833;28;19931;-51
2022/09/13 15:03:24;;;;;;;;;;;;;;;;;;5094673;28;19924;-47
2022/09/13 15:05:53;;;;;;;;;;;;;;;;;;5094409;28;19924;-46
2022/09/13 15:08:38;;;;;;;;;;;;;;;;;;5094794;28;19924;-50
2022/09/13 15:11:12;;;;;;;;;;;;;;;;;;5094413;28;19924;-51
2022/09/13 15:13:41;;;;;;;;;;;;;;;;;;5094918;28;20268;-49
2022/09/13 15:16:43;;;;;;;;;;;;;;;;;;5093531;28;19931;-46
2022/09/13 15:19:14;;;;;;;;;;;;;;;;;;5082617;28;20362;-50
2022/09/13 15:21:42;;;;;;;;;;;;;;;;;;5094835;28;19930;-44
2022/09/13 15:24:35;;;;;;;;;;;;;;;;;;5094778;28;19928;-47
2022/09/13 15:27:05;;;;;;;;;;;;;;;;;;5093842;28;19932;-51
2022/09/13 15:29:33;;;;;;;;;;;;;;;;;;5094167;28;19932;-50
2022/09/13 15:32:01;;;;;;;;;;;;;;;;;;5094133;28;19924;-47
2022/09/13 15:34:28;;;;;;;;;;;;;;;;;;5094435;28;19931;-48
2022/09/13 15:37:08;;;;;;;;;;;;;;;;;;5093874;28;19977;-51
2022/09/13 15:39:42;;;;;;;;;;;;;;;;;;5094727;28;19966;-52
2022/09/13 15:42:09;;;;;;;;;;;;;;;;;;5094188;28;19930;-45
2022/09/13 15:44:36;;;;;;;;;;;;;;;;;;5094304;28;19939;-47
2022/09/13 15:47:09;;;;;;;;;;;;;;;;;;5093563;28;20387;-49
2022/09/13 15:49:38;;;;;;;;;;;;;;;;;;5094256;28;20387;-46
2022/09/13 15:52:06;;;;;;;;;;;;;;;;;;5093863;28;19924;-47
2022/09/13 15:54:38;;;;;;;;;;;;;;;;;;5093886;28;19971;-51
2022/09/13 15:57:07;;;;;;;;;;;;;;;;;;5093988;28;19924;-49
2022/09/13 15:59:34;;;;;;;;;;;;;;;;;;5093814;28;19924;-44
2022/09/13 16:02:13;;;;;;;;;;;;;;;;;;5093590;28;19928;-47
2022/09/13 16:04:40;;;;;;;;;;;;;;;;;;5093831;28;19931;-49
2022/09/13 16:07:07;;;;;;;;;;;;;;;;;;5093761;28;19928;-51
2022/09/13 16:09:37;;;;;;;;;;;;;;;;;;5093201;28;19924;-46
2022/09/13 16:12:04;;;;;;;;;;;;;;;;;;5093662;28;19934;-48
2022/09/13 16:14:31;;;;;;;;;;;;;;;;;;5093711;28;20015;-46
2022/09/13 16:17:02;;;;;;;;;;;;;;;;;;5093561;28;19930;-51
2022/09/13 16:19:29;;;;;;;;;;;;;;;;;;5093671;28;20002;-51
2022/09/13 16:21:56;;;;;;;;;;;;;;;;;;5093382;28;20383;-56
2022/09/13 16:24:23;;;;;;;;;;;;;;;;;;5093444;28;19928;-50
2022/09/13 16:26:53;;;;;;;;;;;;;;;;;;5093272;28;20303;-51
2022/09/13 16:29:21;;;;;;;;;;;;;;;;;;5093217;28;19924;-51
2022/09/13 16:31:49;;;;;;;;;;;;;;;;;;5092722;28;20014;-50
2022/09/13 16:34:16;;;;;;;;;;;;;;;;;;5091751;28;19930;-50
2022/09/13 16:36:43;;;;;;;;;;;;;;;;;;5091600;28;19924;-46
2022/09/13 16:39:10;;;;;;;;;;;;;;;;;;5093437;28;19966;-47
2022/09/13 16:41:39;;;;;;;;;;;;;;;;;;5093176;28;19924;-49
2022/09/13 16:44:07;;;;;;;;;;;;;;;;;;5092091;28;19924;-52
2022/09/13 16:46:34;;;;;;;;;;;;;;;;;;5090913;28;19924;-45
2022/09/13 16:49:02;;;;;;;;;;;;;;;;;;5091114;28;20407;-46
2022/09/13 16:51:29;;;;;;;;;;;;;;;;;;5090875;28;20394;-46
2022/09/13 16:53:57;;;;;;;;;;;;;;;;;;5090925;28;19928;-47
2022/09/13 16:56:25;;;;;;;;;;;;;;;;;;5091915;28;19924;-50
2022/09/13 16:58:52;;;;;;;;;;;;;;;;;;5091952;28;19924;-48
2022/09/13 17:01:24;;;;;;;;;;;;;;;;;;5092584;28;20022;-47
2022/09/13 17:03:52;;;;;;;;;;;;;;;;;;5092589;28;20017;-50
2022/09/13 17:06:21;;;;;;;;;;;;;;;;;;5092561;28;19931;-48
2022/09/13 17:08:50;;;;;;;;;;;;;;;;;;5092245;28;19924;-50
2022/09/13 17:11:20;;;;;;;;;;;;;;;;;;5092011;28;19924;-44
2022/09/13 17:13:47;;;;;;;;;;;;;;;;;;5092085;28;20015;-48
2022/09/13 17:16:36;;;;;;;;;;;;;;;;;;5092234;28;20026;-47
2022/09/13 17:19:04;;;;;;;;;;;;;;;;;;5092568;28;20024;-46
2022/09/13 17:21:32;;;;;;;;;;;;;;;;;;5092612;28;20280;-44